Tampa International Airport
KTPA : now visible

Airfield :











YOU CAN JOIN US ON...

 
LOGIN :

Register | Disclaimer

   EN    FR    IT 

 









Legend :    VFR   Marginal VFR   IFR   Intensive IFR   Very Intensive IFR
Visi :
Ceiling :
>= 8 km
>= 3000ft
5 to 8 km
1000 to 3000 ft
1500m to 5 km
500 to 1000 ft
800 to 1500m
200 to 500 ft
< 800m
< 200 ft
Symbols :   Thunderstorms  Fog  Heavy snow  Heavy precipitations  Wind > 20 kt







- Airport Elevation : 26 ft
- IATA code : TPA


KTPA - Tampa International

CURRENT METAR :
  • 160853Z 00000KT 10SM BKN035 17/16 A2992 RMK AO2 SLP130 T01670156 55000

EXPIRED METARs :
  • 160753Z 00000KT 10SM CLR 17/16 A2990 RMK AO2 SLP124 T01720156
  • 160653Z 00000KT 10SM CLR 17/16 A2992 RMK AO2 SLP130 T01720161
  • 160553Z 18006KT 10SM BKN300 17/16 A2992 RMK AO2 SLP130 T01720156 10200 20172 58013

TAF KTPA
Valid from the 16 at 06:00 until the 17 at 12:00 UTC


160520Z 1606/1712 VRB04KT P6SM BKN250
FM160900 VRB03KT 6SM BR SCT008 SCT030
FM161400 22010KT P6SM SCT025 BKN250
FM170200 VRB04KT P6SM BKN250
KZJX FIR / North America



MET'MAP, your aeronautical weather chart ! - Copyright ORBIFLY December 2007 - Disclaimer

ORBIFLY MET'MAP TEAM :

Programming & Development : Alexandra Zaïnal
Concept & Development : Baudouin d'Aumeries
Co-Development & Prog : Marc-Olivier Méhu
Technical & hardware support : Manuel Goepfert

Contact : metmap@orbifly.com




SOURCES & CREDITS :

   NOAA       Earth
Advisory